Time;durP1;ratioP1;P1;durP2;ratioP2;P2;SDS_P1;SDS_P2;PMS_P1;PMS_P2;Temp;Humidity;BMP_temperature;BMP_pressure;BME280_temperature;BME280_humidity;BME280_pressure;Samples;Min_cycle;Max_cycle;Signal;HPM_P1;HPM_P2
2021/05/17 00:01:35;;;;;;;10.60;2.17;;;16.00;90.30;;;;;;5032664;28;20025;-67
2021/05/17 00:04:04;;;;;;;11.18;2.50;;;16.10;90.40;;;;;;5032479;28;20371;-68
2021/05/17 00:06:31;;;;;;;10.00;2.00;;;16.00;90.20;;;;;;5032423;28;20371;-68
2021/05/17 00:08:57;;;;;;;12.02;2.47;;;16.00;90.00;;;;;;5032588;28;20055;-68
2021/05/17 00:11:23;;;;;;;10.82;2.22;;;16.00;90.20;;;;;;5032460;28;20109;-68
2021/05/17 00:13:48;;;;;;;8.38;2.00;;;16.00;90.20;;;;;;5032616;28;20057;-68
2021/05/17 00:16:14;;;;;;;7.72;2.13;;;16.00;90.10;;;;;;5032543;28;20017;-68
2021/05/17 00:18:40;;;;;;;14.35;3.15;;;16.00;90.20;;;;;;5032615;28;20037;-68
2021/05/17 00:21:06;;;;;;;15.60;2.95;;;16.00;90.20;;;;;;5032416;28;20025;-68
2021/05/17 00:23:32;;;;;;;10.48;2.20;;;16.00;90.20;;;;;;5032523;28;20029;-68
2021/05/17 00:25:58;;;;;;;11.38;2.42;;;16.00;90.20;;;;;;5032437;28;20033;-68
2021/05/17 00:28:24;;;;;;;16.55;2.90;;;15.90;90.20;;;;;;5032340;28;20466;-68
2021/05/17 00:30:50;;;;;;;12.52;2.35;;;15.90;90.10;;;;;;5032301;28;20029;-68
2021/05/17 00:33:16;;;;;;;8.82;2.10;;;15.90;90.00;;;;;;5032608;28;20112;-68
2021/05/17 00:35:42;;;;;;;14.63;2.42;;;16.00;90.10;;;;;;5032465;28;20494;-68
2021/05/17 00:38:08;;;;;;;11.98;2.15;;;16.00;90.10;;;;;;5032460;28;20037;-67
2021/05/17 00:40:34;;;;;;;19.65;2.70;;;16.00;90.00;;;;;;5032285;28;20025;-68
2021/05/17 00:43:01;;;;;;;12.18;2.15;;;16.00;89.80;;;;;;5032633;28;20083;-67
2021/05/17 00:45:27;;;;;;;17.38;2.33;;;16.10;89.70;;;;;;5032406;28;20044;-68
2021/05/17 00:47:54;;;;;;;11.13;2.22;;;16.10;89.60;;;;;;5032627;28;20521;-68
2021/05/17 00:50:26;;;;;;;8.20;1.95;;;16.20;89.10;;;;;;5032226;28;20036;-68
2021/05/17 00:52:56;;;;;;;13.02;2.47;;;16.20;89.00;;;;;;5032340;28;20036;-68
2021/05/17 00:55:23;;;;;;;8.65;2.30;;;16.20;88.70;;;;;;5032277;28;20037;-67
2021/05/17 00:57:49;;;;;;;7.30;1.70;;;16.20;88.60;;;;;;5031107;28;20492;-68
2021/05/17 01:00:21;;;;;;;8.27;1.83;;;16.20;88.40;;;;;;5029195;28;20482;-68
2021/05/17 01:02:48;;;;;;;11.70;2.05;;;16.20;88.40;;;;;;5031346;28;20029;-67
2021/05/17 01:05:14;;;;;;;7.20;1.70;;;16.20;88.00;;;;;;5034498;28;20087;-68
2021/05/17 01:07:45;;;;;;;6.55;1.58;;;16.20;87.80;;;;;;5035628;28;20069;-68
2021/05/17 01:10:16;;;;;;;13.07;2.27;;;16.20;87.60;;;;;;5035527;28;20055;-68
2021/05/17 01:12:44;;;;;;;7.70;1.90;;;16.10;87.40;;;;;;5035350;28;20433;-68
2021/05/17 01:15:11;;;;;;;13.57;1.90;;;16.10;87.60;;;;;;5035584;28;20116;-68
2021/05/17 01:17:37;;;;;;;6.60;1.88;;;16.10;87.30;;;;;;5035392;28;20030;-67
2021/05/17 01:20:08;;;;;;;10.80;1.70;;;16.10;87.20;;;;;;5035067;28;20462;-67
2021/05/17 01:23:31;;;;;;;8.52;1.92;;;16.10;87.20;;;;;;5035325;28;20513;-68
2021/05/17 01:25:29;;;;;;;12.57;2.83;;;16.10;87.30;;;;;;5034605;28;20045;-68
2021/05/17 01:27:56;;;;;;;13.98;2.08;;;16.10;87.00;;;;;;5034786;28;20468;-67
2021/05/17 01:30:23;;;;;;;8.45;1.90;;;16.10;87.50;;;;;;5035317;28;20021;-68
2021/05/17 01:32:52;;;;;;;8.55;1.58;;;16.00;87.50;;;;;;5035243;28;20029;-68
2021/05/17 01:35:18;;;;;;;6.32;1.67;;;16.10;87.40;;;;;;5034979;28;20045;-68
2021/05/17 01:37:45;;;;;;;11.10;2.67;;;16.00;87.70;;;;;;5035214;28;20017;-68
2021/05/17 01:40:11;;;;;;;19.45;2.63;;;16.00;88.20;;;;;;5034499;28;20077;-68
2021/05/17 01:42:39;;;;;;;23.73;3.60;;;16.00;89.50;;;;;;5034501;28;20025;-67
2021/05/17 01:45:06;;;;;;;12.48;2.20;;;16.00;90.00;;;;;;5034730;28;20037;-68
2021/05/17 01:47:38;;;;;;;11.07;2.10;;;16.00;90.00;;;;;;5034537;28;20048;-67
2021/05/17 01:50:05;;;;;;;10.32;2.25;;;15.90;90.20;;;;;;5033035;28;20119;-68
2021/05/17 01:52:37;;;;;;;12.93;2.47;;;15.90;90.50;;;;;;5034388;28;20056;-67
2021/05/17 01:55:06;;;;;;;14.70;2.60;;;15.80;90.70;;;;;;5034933;28;20026;-67
2021/05/17 01:57:32;;;;;;;15.75;2.10;;;15.80;90.90;;;;;;5034245;28;20022;-67
2021/05/17 01:59:59;;;;;;;14.27;3.00;;;15.80;91.20;;;;;;5034542;28;20025;-67
2021/05/17 02:02:26;;;;;;;15.48;2.40;;;15.80;91.30;;;;;;5034406;28;20029;-67
2021/05/17 02:04:54;;;;;;;15.57;2.65;;;15.80;91.40;;;;;;5034398;28;20149;-67
2021/05/17 02:07:21;;;;;;;18.83;2.40;;;15.80;91.50;;;;;;5034429;28;20028;-67
2021/05/17 02:09:52;;;;;;;13.75;2.22;;;15.80;91.50;;;;;;5034120;28;20033;-67
2021/05/17 02:12:22;;;;;;;12.43;2.30;;;15.80;91.30;;;;;;5034496;28;20026;-67
2021/05/17 02:14:54;;;;;;;10.93;2.08;;;15.80;91.20;;;;;;5033592;28;20033;-67
2021/05/17 02:17:21;;;;;;;11.10;2.03;;;15.80;91.30;;;;;;5034375;28;20071;-67
2021/05/17 02:19:47;;;;;;;12.70;2.00;;;15.80;91.30;;;;;;5034310;28;20029;-68
2021/05/17 02:22:17;;;;;;;13.80;2.13;;;15.80;91.40;;;;;;5034228;28;20025;-67
2021/05/17 02:24:44;;;;;;;12.80;2.17;;;15.80;91.40;;;;;;5034238;28;20038;-67
2021/05/17 02:27:11;;;;;;;11.73;1.88;;;15.80;91.40;;;;;;5034299;28;20433;-67
2021/05/17 02:29:37;;;;;;;10.40;2.10;;;15.80;91.30;;;;;;5034298;28;20080;-67
2021/05/17 02:32:03;;;;;;;11.20;2.10;;;15.80;91.30;;;;;;5034150;28;20053;-67
2021/05/17 02:34:28;;;;;;;8.48;1.98;;;15.80;91.30;;;;;;5034164;28;20108;-68
2021/05/17 02:36:54;;;;;;;12.68;2.50;;;15.80;91.30;;;;;;5034198;28;20104;-67
2021/05/17 02:39:20;;;;;;;8.85;2.17;;;15.80;91.30;;;;;;5033842;28;20024;-67
2021/05/17 02:41:47;;;;;;;12.38;2.55;;;15.80;91.30;;;;;;5033870;28;20033;-68
2021/05/17 02:44:13;;;;;;;11.90;2.08;;;15.80;91.20;;;;;;5033382;28;20029;-67
2021/05/17 02:46:39;;;;;;;16.92;3.25;;;15.80;91.20;;;;;;5033640;28;20048;-67
2021/05/17 02:49:06;;;;;;;11.65;2.20;;;15.80;91.20;;;;;;5033800;28;20104;-67
2021/05/17 02:51:32;;;;;;;8.82;2.10;;;15.70;91.20;;;;;;5033441;28;20049;-67
2021/05/17 02:54:25;;;;;;;12.90;2.10;;;15.70;91.30;;;;;;5033699;28;20025;-67
2021/05/17 02:57:35;;;;;;;15.38;2.25;;;15.70;91.40;;;;;;5033516;28;20441;-68
2021/05/17 03:00:07;;;;;;;7.43;1.55;;;15.60;91.10;;;;;;5031348;28;20041;-67
2021/05/17 03:02:54;;;;;;;16.33;2.00;;;15.70;91.00;;;;;;5033182;28;20121;-67
2021/05/17 03:05:20;;;;;;;11.02;2.20;;;15.70;91.00;;;;;;5033614;28;20474;-67
2021/05/17 03:08:04;;;;;;;18.15;2.30;;;15.70;91.00;;;;;;5033641;28;20040;-67
2021/05/17 03:10:31;;;;;;;11.73;2.20;;;15.70;90.90;;;;;;5033398;28;20025;-67
2021/05/17 03:13:02;;;;;;;10.07;2.00;;;15.80;91.00;;;;;;5033256;28;20021;-67
2021/05/17 03:15:28;;;;;;;10.20;1.95;;;15.80;90.90;;;;;;5033406;28;20075;-67
2021/05/17 03:17:55;;;;;;;13.23;2.53;;;15.80;90.80;;;;;;5033184;28;20017;-67
2021/05/17 03:20:23;;;;;;;10.93;2.10;;;15.70;90.80;;;;;;5033045;28;20021;-67
2021/05/17 03:22:53;;;;;;;13.55;1.88;;;15.80;90.70;;;;;;5032856;28;20021;-67
2021/05/17 03:25:30;;;;;;;10.55;1.80;;;15.80;90.60;;;;;;5032543;28;20034;-67
2021/05/17 03:27:56;;;;;;;7.97;1.88;;;15.90;90.40;;;;;;5032963;28;20033;-67
2021/05/17 03:30:22;;;;;;;6.05;1.60;;;15.90;90.40;;;;;;5032980;28;20009;-67
2021/05/17 03:32:48;;;;;;;11.85;2.55;;;15.80;90.50;;;;;;5033201;28;20033;-67
2021/05/17 03:35:15;;;;;;;6.70;1.58;;;15.90;90.50;;;;;;5031457;28;20021;-68
2021/05/17 03:37:41;;;;;;;5.22;1.20;;;15.90;90.50;;;;;;5032884;28;20485;-67
2021/05/17 03:40:08;;;;;;;4.40;1.42;;;15.80;90.50;;;;;;5032886;28;20018;-67
2021/05/17 03:42:35;;;;;;;5.75;1.60;;;15.80;91.60;;;;;;5032963;28;20030;-67
2021/05/17 03:45:03;;;;;;;5.07;1.70;;;15.80;90.50;;;;;;5032645;28;20033;-67
2021/05/17 03:47:28;;;;;;;5.13;1.27;;;15.80;90.60;;;;;;5032772;28;20018;-67
2021/05/17 03:49:54;;;;;;;7.50;1.80;;;15.80;90.50;;;;;;5032440;28;20481;-68
2021/05/17 03:52:20;;;;;;;6.40;1.30;;;15.80;90.50;;;;;;5032750;28;20061;-67
2021/05/17 03:54:45;;;;;;;4.53;1.25;;;15.80;90.50;;;;;;5032831;28;20028;-67
2021/05/17 03:57:11;;;;;;;5.38;1.60;;;15.80;90.40;;;;;;5032690;28;20425;-67
2021/05/17 03:59:37;;;;;;;5.90;1.50;;;15.80;90.30;;;;;;5032814;28;20109;-67
2021/05/17 04:02:03;;;;;;;7.70;1.55;;;15.80;90.30;;;;;;5032937;28;20096;-67
2021/05/17 04:04:36;;;;;;;3.40;0.95;;;15.80;90.30;;;;;;5032644;28;20092;-67
2021/05/17 04:13:18;;;;;;;4.40;0.98;;;15.70;90.30;;;;;;5032551;28;20420;-67
2021/05/17 04:15:18;;;;;;;3.30;1.08;;;15.70;90.40;;;;;;5032708;28;20075;-67
2021/05/17 04:17:44;;;;;;;3.80;1.30;;;15.70;90.20;;;;;;5032464;28;20432;-67
2021/05/17 04:20:10;;;;;;;5.07;1.38;;;15.70;90.20;;;;;;5032447;28;20470;-67
2021/05/17 04:22:36;;;;;;;4.47;1.00;;;15.70;90.10;;;;;;5032361;28;20037;-67
2021/05/17 04:25:02;;;;;;;6.85;1.45;;;15.70;90.10;;;;;;5032580;28;20038;-67
2021/05/17 04:27:28;;;;;;;6.22;1.45;;;15.70;90.10;;;;;;5032459;28;20524;-67
2021/05/17 04:29:54;;;;;;;6.78;1.33;;;15.70;90.10;;;;;;5032077;28;20029;-67
2021/05/17 04:32:19;;;;;;;11.98;1.80;;;15.70;90.10;;;;;;5032319;28;20458;-68
2021/05/17 04:34:45;;;;;;;7.13;2.00;;;15.70;90.10;;;;;;5032458;28;20021;-67
2021/05/17 04:37:11;;;;;;;8.00;1.40;;;15.60;90.10;;;;;;5033710;28;20061;-67
2021/05/17 04:39:36;;;;;;;7.13;1.20;;;15.70;90.10;;;;;;5035985;28;20025;-67
2021/05/17 04:42:02;;;;;;;10.20;1.92;;;15.70;90.20;;;;;;5036126;28;20036;-67
2021/05/17 04:44:28;;;;;;;9.95;1.45;;;15.60;90.20;;;;;;5036007;28;20045;-67
2021/05/17 04:46:54;;;;;;;17.70;1.95;;;15.60;90.20;;;;;;5036241;28;20382;-67
2021/05/17 04:49:19;;;;;;;8.18;1.85;;;15.60;90.30;;;;;;5036341;28;20029;-67
2021/05/17 04:51:45;;;;;;;7.43;1.58;;;15.60;90.40;;;;;;5035883;28;20046;-67
2021/05/17 04:54:11;;;;;;;2.72;0.82;;;15.60;90.40;;;;;;5035948;28;20108;-67
2021/05/17 04:56:37;;;;;;;0.88;0.32;;;15.60;90.30;;;;;;5036127;28;20091;-67
2021/05/17 04:59:02;;;;;;;1.65;0.30;;;15.60;89.30;;;;;;5035703;28;20072;-67
2021/05/17 05:01:28;;;;;;;5.45;0.50;;;15.60;87.60;;;;;;5035612;28;20534;-67
2021/05/17 05:03:54;;;;;;;18.98;2.03;;;15.50;86.40;;;;;;5035949;28;20021;-67
2021/05/17 05:06:19;;;;;;;2.08;0.28;;;15.40;84.50;;;;;;5035915;28;20060;-67
2021/05/17 05:08:45;;;;;;;1.27;0.32;;;15.30;83.30;;;;;;5035709;28;20025;-67
2021/05/17 05:11:11;;;;;;;2.72;0.20;;;15.20;83.00;;;;;;5035622;28;20022;-67
2021/05/17 05:13:36;;;;;;;2.15;0.20;;;15.00;82.70;;;;;;5035783;28;20025;-67
2021/05/17 05:16:02;;;;;;;4.13;0.30;;;14.90;82.50;;;;;;5035362;28;20359;-67
2021/05/17 05:18:28;;;;;;;3.63;0.17;;;14.90;82.90;;;;;;5035734;28;20420;-67
2021/05/17 05:20:54;;;;;;;5.95;0.20;;;14.80;83.20;;;;;;5035691;28;20025;-67
2021/05/17 05:23:21;;;;;;;0.98;0.20;;;14.70;82.40;;;;;;5035499;28;20029;-67
2021/05/17 05:28:25;;;;;;;4.93;0.35;;;14.60;82.50;;;;;;5034677;28;20026;-67
2021/05/17 05:33:22;;;;;;;6.07;0.40;;;14.50;81.30;;;;;;5033330;28;20432;-67
2021/05/17 05:35:48;;;;;;;1.17;0.35;;;14.40;80.90;;;;;;5034880;28;20025;-67
2021/05/17 05:38:14;;;;;;;1.33;0.20;;;14.40;81.10;;;;;;5035145;28;20033;-67
2021/05/17 05:40:40;;;;;;;3.08;1.08;;;14.30;81.00;;;;;;5035606;28;20366;-67
2021/05/17 05:43:06;;;;;;;5.50;0.15;;;14.30;81.70;;;;;;5035382;28;20057;-67
2021/05/17 05:45:33;;;;;;;0.57;0.10;;;14.20;80.80;;;;;;5034954;28;20053;-67
2021/05/17 05:48:02;;;;;;;2.92;0.10;;;14.10;79.80;;;;;;5034885;28;20129;-67
2021/05/17 05:50:28;;;;;;;3.05;0.10;;;14.10;79.60;;;;;;5034908;28;20406;-67
2021/05/17 05:52:54;;;;;;;2.47;0.10;;;14.10;80.50;;;;;;5034658;28;20022;-67
2021/05/17 05:55:19;;;;;;;5.03;0.20;;;14.10;79.50;;;;;;5034666;28;20386;-67
2021/05/17 05:57:45;;;;;;;0.47;0.00;;;14.00;79.90;;;;;;5034932;28;20045;-67
2021/05/17 06:00:17;;;;;;;1.98;0.10;;;14.00;82.60;;;;;;5034669;28;20100;-67
2021/05/17 06:02:43;;;;;;;3.83;0.43;;;14.00;80.30;;;;;;5032646;28;20071;-67
2021/05/17 06:05:10;;;;;;;2.90;0.20;;;14.00;82.00;;;;;;5033895;28;20048;-67
2021/05/17 06:07:36;;;;;;;5.18;0.20;;;14.00;81.90;;;;;;5033550;28;20087;-67
2021/05/17 06:10:06;;;;;;;1.15;0.20;;;13.90;80.40;;;;;;5034091;28;20025;-67
2021/05/17 06:12:32;;;;;;;0.43;0.20;;;13.90;81.10;;;;;;5034106;28;20463;-67
2021/05/17 06:15:03;;;;;;;3.00;0.10;;;13.90;80.10;;;;;;5034498;28;20026;-67
2021/05/17 06:17:29;;;;;;;0.98;0.20;;;13.90;81.20;;;;;;5017200;28;20117;-67
2021/05/17 06:19:56;;;;;;;0.43;0.10;;;13.90;81.10;;;;;;5014224;28;20093;-67
2021/05/17 06:22:26;;;;;;;2.63;0.20;;;13.80;80.80;;;;;;4990489;28;20080;-67
2021/05/17 06:24:53;;;;;;;1.00;0.10;;;13.80;81.50;;;;;;5014676;28;20034;-67
2021/05/17 06:27:19;;;;;;;1.45;0.20;;;13.80;82.00;;;;;;5014354;28;20025;-67
2021/05/17 06:29:45;;;;;;;1.95;0.20;;;13.80;81.90;;;;;;5013948;28;20034;-67
2021/05/17 06:32:11;;;;;;;0.20;0.10;;;13.70;81.90;;;;;;5014179;28;20026;-67
2021/05/17 06:34:40;;;;;;;0.93;0.30;;;13.70;82.40;;;;;;5014437;28;20034;-67
2021/05/17 06:37:07;;;;;;;0.60;0.05;;;13.70;83.70;;;;;;5014005;28;20179;-67
2021/05/17 06:39:33;;;;;;;0.25;0.10;;;13.70;82.00;;;;;;5012789;28;20413;-67
2021/05/17 06:41:59;;;;;;;0.20;0.00;;;13.70;81.70;;;;;;5014702;28;20569;-67
2021/05/17 06:44:25;;;;;;;0.95;0.20;;;13.70;82.20;;;;;;5014721;28;20469;-67
2021/05/17 06:46:51;;;;;;;2.05;0.43;;;13.70;83.60;;;;;;5014569;28;20113;-67
2021/05/17 06:49:17;;;;;;;3.03;0.40;;;13.70;83.90;;;;;;5014491;28;20026;-67
2021/05/17 06:51:43;;;;;;;2.13;0.20;;;13.70;83.00;;;;;;5014092;28;20541;-67
2021/05/17 06:54:13;;;;;;;2.75;0.50;;;13.70;82.30;;;;;;5014393;28;20530;-67
2021/05/17 06:56:43;;;;;;;3.20;0.60;;;13.70;82.60;;;;;;5014215;28;20024;-67
2021/05/17 06:59:18;;;;;;;1.98;0.60;;;13.70;83.80;;;;;;5013886;28;20057;-67
2021/05/17 07:01:45;;;;;;;2.85;0.43;;;13.60;84.90;;;;;;5014001;28;20053;-67
2021/05/17 07:04:15;;;;;;;2.42;0.60;;;13.70;85.20;;;;;;5014163;28;20037;-67
2021/05/17 07:06:48;;;;;;;3.70;0.57;;;13.70;85.30;;;;;;5013725;28;20037;-68
2021/05/17 07:12:19;;;;;;;2.60;0.57;;;13.80;86.20;;;;;;5013928;28;20032;-68
2021/05/17 07:14:44;;;;;;;3.78;1.10;;;13.80;86.70;;;;;;5013982;28;20084;-67
2021/05/17 07:17:10;;;;;;;3.10;0.80;;;13.80;86.30;;;;;;5013652;28;20030;-68
2021/05/17 07:19:35;;;;;;;3.25;0.50;;;13.80;86.30;;;;;;5014084;28;20101;-68
2021/05/17 07:24:45;;;;;;;0.63;0.20;;;13.70;86.80;;;;;;5013738;28;20132;-67
2021/05/17 07:27:11;;;;;;;0.43;0.25;;;13.70;85.90;;;;;;5013906;28;20050;-67
2021/05/17 07:29:38;;;;;;;0.50;0.20;;;13.70;85.50;;;;;;5013695;28;20065;-67
2021/05/17 07:32:07;;;;;;;2.40;0.30;;;13.60;85.10;;;;;;5013547;28;20024;-67
2021/05/17 07:34:34;;;;;;;1.75;0.55;;;13.60;84.50;;;;;;5013742;28;20041;-67
2021/05/17 07:37:00;;;;;;;1.52;0.20;;;13.60;83.90;;;;;;5013686;28;20164;-67
2021/05/17 07:39:26;;;;;;;0.13;0.10;;;13.50;83.20;;;;;;5013491;28;20033;-67
2021/05/17 07:41:53;;;;;;;0.80;0.10;;;13.50;83.50;;;;;;5013639;28;20034;-67
2021/05/17 07:44:18;;;;;;;1.30;0.25;;;13.40;84.20;;;;;;5013756;28;20033;-67
2021/05/17 07:46:45;;;;;;;0.63;0.20;;;13.40;84.60;;;;;;5013754;28;20045;-67
2021/05/17 07:51:38;;;;;;;2.92;0.10;;;13.40;84.70;;;;;;5013354;28;20375;-67
2021/05/17 07:54:04;;;;;;;1.15;0.10;;;13.40;84.30;;;;;;5013469;28;20026;-67
2021/05/17 07:56:30;;;;;;;0.63;0.13;;;13.40;84.20;;;;;;5013825;28;20383;-68
2021/05/17 07:58:56;;;;;;;0.22;0.17;;;13.30;84.60;;;;;;5013398;28;20049;-67
2021/05/17 08:01:22;;;;;;;2.03;0.30;;;13.30;84.90;;;;;;5013467;28;20026;-67
2021/05/17 08:03:48;;;;;;;1.08;0.28;;;13.30;85.30;;;;;;5013285;28;20029;-67
2021/05/17 08:06:14;;;;;;;0.47;0.22;;;13.30;85.10;;;;;;5012964;28;20081;-67
2021/05/17 08:08:40;;;;;;;0.08;0.08;;;13.30;85.50;;;;;;5013206;28;20022;-68
2021/05/17 08:11:06;;;;;;;0.60;0.10;;;13.30;85.10;;;;;;5013195;28;20422;-67
2021/05/17 08:13:31;;;;;;;0.55;0.15;;;13.40;85.10;;;;;;5016500;28;20434;-67
2021/05/17 08:15:57;;;;;;;3.25;0.32;;;13.50;86.10;;;;;;5016269;28;20033;-68
2021/05/17 08:18:23;;;;;;;2.17;0.32;;;13.60;89.50;;;;;;5015678;28;20034;-67
2021/05/17 08:20:49;;;;;;;0.88;0.22;;;13.50;86.70;;;;;;5015309;28;20095;-67
2021/05/17 08:23:18;;;;;;;0.38;0.20;;;13.50;86.50;;;;;;5015442;28;20026;-67
2021/05/17 08:25:45;;;;;;;0.68;0.30;;;13.60;86.10;;;;;;5016363;28;20041;-67
2021/05/17 08:28:11;;;;;;;0.40;0.25;;;13.60;86.10;;;;;;5016346;28;20493;-67
2021/05/17 08:30:46;;;;;;;0.17;0.10;;;13.60;86.20;;;;;;5016310;28;20097;-67
2021/05/17 08:33:13;;;;;;;0.20;0.20;;;13.70;86.30;;;;;;5016828;28;20104;-68
2021/05/17 08:35:41;;;;;;;2.80;0.30;;;13.70;86.70;;;;;;5016608;28;20084;-67
2021/05/17 08:38:07;;;;;;;1.85;0.20;;;13.80;86.80;;;;;;5016880;28;20018;-68
2021/05/17 08:40:38;;;;;;;0.85;0.22;;;13.80;86.30;;;;;;5016786;28;20463;-68
2021/05/17 08:43:05;;;;;;;0.57;0.40;;;13.80;85.30;;;;;;5016901;28;20022;-67
2021/05/17 08:45:31;;;;;;;2.33;0.20;;;13.90;84.30;;;;;;5016285;28;20061;-67
2021/05/17 08:47:57;;;;;;;0.68;0.30;;;13.90;83.50;;;;;;5016566;28;20026;-67
2021/05/17 08:50:24;;;;;;;1.25;0.50;;;13.90;82.80;;;;;;5014060;28;20029;-67
2021/05/17 08:52:50;;;;;;;0.30;0.30;;;13.80;82.90;;;;;;5015992;28;20057;-67
2021/05/17 08:55:17;;;;;;;1.58;0.35;;;13.80;82.80;;;;;;5032133;28;20106;-67
2021/05/17 08:57:44;;;;;;;0.80;0.22;;;13.90;81.90;;;;;;5036199;28;20102;-66
2021/05/17 09:00:10;;;;;;;0.90;0.20;;;13.80;81.80;;;;;;5035791;28;20375;-67
2021/05/17 09:02:36;;;;;;;1.55;0.20;;;13.90;81.70;;;;;;5036148;28;20048;-67
2021/05/17 09:05:29;;;;;;;0.77;0.20;;;13.90;80.70;;;;;;5035637;28;20061;-67
2021/05/17 09:08:01;;;;;;;0.28;0.13;;;13.90;81.40;;;;;;5035925;28;20113;-67
2021/05/17 09:10:38;;;;;;;0.52;0.20;;;14.00;82.20;;;;;;5034537;28;20017;-67
2021/05/17 09:13:07;;;;;;;0.20;0.10;;;14.10;83.60;;;;;;5036432;28;20355;-67
2021/05/17 09:15:54;;;;;;;1.20;0.22;;;14.20;84.80;;;;;;5035905;28;20079;-67
2021/05/17 09:18:28;;;;;;;0.98;0.20;;;14.40;85.40;;;;;;5035550;28;20112;-67
2021/05/17 09:20:58;;;;;;;0.45;0.20;;;14.60;84.00;;;;;;5035791;28;20486;-67
2021/05/17 09:23:30;;;;;;;0.25;0.10;;;;;;;;;;5035379;28;20156;-67
2021/05/17 09:26:14;;;;;;;0.45;0.22;;;14.90;82.00;;;;;;5035767;28;20116;-67
2021/05/17 09:28:46;;;;;;;2.60;0.20;;;15.10;81.20;;;;;;5035830;28;20068;-67
2021/05/17 09:31:14;;;;;;;0.75;0.17;;;15.30;78.70;;;;;;5035626;28;20017;-67
2021/05/17 09:33:48;;;;;;;3.70;0.63;;;15.40;78.90;;;;;;5035757;28;20022;-67
2021/05/17 09:36:36;;;;;;;1.25;0.30;;;15.60;79.80;;;;;;5035450;28;20064;-67
2021/05/17 09:39:16;;;;;;;1.20;0.32;;;15.80;78.70;;;;;;5034237;28;20052;-68
2021/05/17 09:41:48;;;;;;;0.30;0.20;;;16.00;77.10;;;;;;5033723;28;20025;-68
2021/05/17 09:44:21;;;;;;;0.20;0.20;;;16.20;76.00;;;;;;5035393;28;20036;-68
2021/05/17 09:47:09;;;;;;;0.28;0.10;;;16.40;74.80;;;;;;5034495;28;20033;-68
2021/05/17 09:49:35;;;;;;;0.20;0.20;;;16.50;71.00;;;;;;5033549;28;20026;-68
2021/05/17 09:52:09;;;;;;;2.83;0.77;;;16.50;70.40;;;;;;5034577;28;20053;-67
2021/05/17 09:54:51;;;;;;;1.52;0.30;;;16.50;69.30;;;;;;5034984;28;20041;-67
2021/05/17 09:57:19;;;;;;;0.30;0.20;;;16.50;69.30;;;;;;5034476;28;20110;-68
2021/05/17 09:59:50;;;;;;;0.47;0.20;;;16.50;70.10;;;;;;5033936;28;20214;-68
2021/05/17 10:02:40;;;;;;;1.38;0.38;;;16.40;68.80;;;;;;5033525;28;20067;-68
2021/05/17 10:05:13;;;;;;;0.70;0.30;;;16.40;67.70;;;;;;5034859;28;20034;-68
2021/05/17 10:07:40;;;;;;;0.43;0.20;;;16.40;66.20;;;;;;5034868;28;20033;-67
2021/05/17 10:10:07;;;;;;;0.22;0.15;;;16.30;68.30;;;;;;5034771;28;20108;-67
2021/05/17 10:12:33;;;;;;;0.10;0.10;;;16.40;70.20;;;;;;5034688;28;20025;-67
2021/05/17 10:14:58;;;;;;;1.95;0.20;;;16.40;70.10;;;;;;5034282;28;20049;-68
2021/05/17 10:17:24;;;;;;;0.22;0.20;;;16.50;70.10;;;;;;5022573;28;20018;-68
2021/05/17 10:19:50;;;;;;;0.15;0.10;;;16.60;69.70;;;;;;5025051;28;20034;-68
2021/05/17 10:22:17;;;;;;;0.85;0.20;;;16.70;69.20;;;;;;5016126;28;20505;-68
2021/05/17 10:24:43;;;;;;;0.20;0.20;;;16.70;68.90;;;;;;5014701;28;20049;-68
2021/05/17 10:27:09;;;;;;;0.43;0.20;;;16.80;71.30;;;;;;5015000;28;20033;-68
2021/05/17 10:29:37;;;;;;;1.17;0.30;;;16.90;71.90;;;;;;5014844;28;20482;-68
2021/05/17 10:32:08;;;;;;;1.80;0.30;;;16.90;72.40;;;;;;5014845;28;20037;-67
2021/05/17 10:34:47;;;;;;;0.50;0.30;;;17.00;73.10;;;;;;5013758;28;20479;-68
2021/05/17 10:37:20;;;;;;;0.70;0.25;;;17.00;73.40;;;;;;5014919;28;20088;-68
2021/05/17 10:39:54;;;;;;;1.23;0.30;;;17.10;73.50;;;;;;5014625;28;20026;-68
2021/05/17 10:42:39;;;;;;;0.65;0.35;;;17.10;74.60;;;;;;5014515;28;20104;-68
2021/05/17 10:48:18;;;;;;;0.45;0.30;;;17.20;73.70;;;;;;5014126;28;20459;-68
2021/05/17 10:51:17;;;;;;;0.75;0.30;;;17.30;69.30;;;;;;5014057;28;20107;-68
2021/05/17 10:53:48;;;;;;;0.63;0.30;;;17.30;70.90;;;;;;5014278;28;20070;-68
2021/05/17 10:56:18;;;;;;;2.47;0.30;;;17.30;72.20;;;;;;5014365;28;20022;-68
2021/05/17 11:02:13;;;;;;;0.57;0.20;;;17.30;70.90;;;;;;5014304;28;20064;-68
2021/05/17 11:04:41;;;;;;;0.20;0.20;;;17.30;70.70;;;;;;5009748;28;20076;-69
2021/05/17 11:07:09;;;;;;;1.23;0.50;;;17.30;70.10;;;;;;5013868;28;20034;-68
2021/05/17 11:09:55;;;;;;;2.03;0.32;;;17.30;70.20;;;;;;5014044;28;20014;-68
2021/05/17 11:12:27;;;;;;;1.17;0.32;;;17.50;70.50;;;;;;5014358;28;20037;-68
2021/05/17 11:15:15;;;;;;;0.43;0.30;;;17.60;69.40;;;;;;5014043;28;20398;-68
2021/05/17 11:18:18;;;;;;;0.43;0.40;;;17.80;66.90;;;;;;5013909;28;20044;-68
2021/05/17 11:20:46;;;;;;;0.98;0.30;;;18.00;67.70;;;;;;5013820;28;20103;-68
2021/05/17 11:23:27;;;;;;;0.70;0.35;;;18.30;65.90;;;;;;5014034;28;20115;-68
2021/05/17 11:25:57;;;;;;;1.33;0.40;;;18.40;64.90;;;;;;5013687;28;20490;-68
2021/05/17 11:28:40;;;;;;;4.55;0.30;;;18.40;63.50;;;;;;5013747;28;20022;-67
2021/05/17 11:31:21;;;;;;;3.42;0.35;;;18.60;65.60;;;;;;5013731;28;20037;-68
2021/05/17 11:33:57;;;;;;;2.88;0.43;;;18.80;64.10;;;;;;5013897;28;20383;-68
2021/05/17 11:36:47;;;;;;;0.77;0.40;;;18.90;63.80;;;;;;5013475;28;20029;-68
2021/05/17 11:39:31;;;;;;;2.25;0.40;;;19.00;63.50;;;;;;5009576;28;20034;-68
2021/05/17 11:42:01;;;;;;;1.50;0.40;;;19.30;64.20;;;;;;5013644;28;20030;-67
2021/05/17 11:44:37;;;;;;;1.40;0.30;;;19.40;63.70;;;;;;5013344;28;20044;-68
2021/05/17 11:47:02;;;;;;;2.42;0.30;;;19.50;61.90;;;;;;5013287;28;20034;-69
2021/05/17 11:49:32;;;;;;;0.68;0.30;;;19.60;59.60;;;;;;5013427;28;20068;-70
2021/05/17 11:51:59;;;;;;;0.82;0.40;;;19.60;58.30;;;;;;5013173;28;20058;-70
2021/05/17 11:54:33;;;;;;;0.40;0.25;;;19.50;57.30;;;;;;5013391;28;20090;-69
2021/05/17 11:57:00;;;;;;;0.50;0.30;;;19.60;58.10;;;;;;5013133;28;20034;-69
2021/05/17 11:59:28;;;;;;;0.82;0.28;;;19.70;59.80;;;;;;5013058;28;20022;-69
2021/05/17 12:02:05;;;;;;;0.98;0.40;;;19.80;60.40;;;;;;5013425;28;20026;-68
2021/05/17 12:04:35;;;;;;;1.48;0.40;;;20.00;60.30;;;;;;5013417;28;20036;-68
2021/05/17 12:07:02;;;;;;;0.45;0.25;;;20.10;58.90;;;;;;5013274;28;20029;-68
2021/05/17 12:09:38;;;;;;;0.45;0.20;;;20.20;58.70;;;;;;5013221;28;20076;-68
2021/05/17 12:12:07;;;;;;;3.45;0.30;;;20.30;53.50;;;;;;5013184;28;20034;-68
2021/05/17 12:14:34;;;;;;;2.15;0.68;;;20.40;57.80;;;;;;5013162;28;20014;-69
2021/05/17 12:17:10;;;;;;;0.73;0.45;;;20.50;57.60;;;;;;5013188;28;20092;-68
2021/05/17 12:19:36;;;;;;;0.77;0.52;;;20.50;57.90;;;;;;5013327;28;20030;-68
2021/05/17 12:22:09;;;;;;;0.65;0.43;;;20.60;57.60;;;;;;5013042;28;20018;-69
2021/05/17 12:24:36;;;;;;;0.47;0.32;;;20.60;56.20;;;;;;5013014;28;20072;-68
2021/05/17 12:27:06;;;;;;;1.88;0.40;;;20.60;55.40;;;;;;5013882;28;20478;-68
2021/05/17 12:30:16;;;;;;;2.95;0.50;;;20.60;54.70;;;;;;5016952;28;20034;-68
2021/05/17 12:32:46;;;;;;;1.55;0.40;;;20.60;54.60;;;;;;4991239;28;20037;-69
2021/05/17 12:35:21;;;;;;;0.65;0.32;;;20.60;55.10;;;;;;5010714;28;20197;-69
2021/05/17 12:37:53;;;;;;;0.55;0.30;;;20.70;53.20;;;;;;5012867;28;20053;-69
2021/05/17 12:40:31;;;;;;;2.15;0.40;;;20.70;52.10;;;;;;5012774;28;20032;-68
2021/05/17 12:43:05;;;;;;;0.22;0.20;;;20.70;54.40;;;;;;5012342;28;20431;-69
2021/05/17 12:45:33;;;;;;;1.75;0.28;;;20.80;55.10;;;;;;5010818;28;20066;-69
2021/05/17 12:47:58;;;;;;;2.65;0.30;;;20.90;54.40;;;;;;5012121;28;20025;-69
2021/05/17 12:50:33;;;;;;;0.47;0.30;;;21.00;55.90;;;;;;5011257;28;20034;-69
2021/05/17 12:53:08;;;;;;;0.40;0.30;;;21.10;54.00;;;;;;5011544;28;20486;-68
2021/05/17 12:55:40;;;;;;;0.55;0.30;;;21.20;52.80;;;;;;5011208;28;20482;-69
2021/05/17 12:58:06;;;;;;;1.08;0.30;;;21.20;50.30;;;;;;5013438;28;20129;-69
2021/05/17 13:00:52;;;;;;;0.73;0.30;;;21.20;50.10;;;;;;5015421;28;20034;-69
2021/05/17 13:03:23;;;;;;;0.32;0.28;;;21.20;50.40;;;;;;5014606;28;20045;-69
2021/05/17 13:06:06;;;;;;;3.22;0.30;;;21.30;51.40;;;;;;5014878;28;20042;-69
2021/05/17 13:08:40;;;;;;;2.70;0.35;;;21.30;49.30;;;;;;5028003;28;20029;-69
2021/05/17 13:11:08;;;;;;;0.38;0.25;;;21.30;49.80;;;;;;5030945;28;20487;-69
2021/05/17 13:13:46;;;;;;;0.98;0.30;;;21.40;52.00;;;;;;5033228;28;20034;-68
2021/05/17 13:16:24;;;;;;;0.73;0.20;;;21.40;51.10;;;;;;5033861;28;20041;-69
2021/05/17 13:18:55;;;;;;;0.35;0.30;;;21.40;46.80;;;;;;5014556;28;20564;-67
2021/05/17 13:21:33;;;;;;;3.83;0.30;;;21.30;48.70;;;;;;5015599;28;20490;-67
2021/05/17 13:32:12;;;;;;;0.40;0.20;;;21.40;46.80;;;;;;5015674;28;20056;-68